createdAt,value
2018-09-06T00:01:18.942Z,18.80
2018-09-06T00:03:49.310Z,18.60
2018-09-06T00:06:18.530Z,18.50
2018-09-06T00:08:47.392Z,18.40
2018-09-06T00:11:16.742Z,18.40
2018-09-06T00:13:46.259Z,18.40
2018-09-06T00:16:15.506Z,18.30
2018-09-06T00:18:44.834Z,18.30
2018-09-06T00:21:14.603Z,18.30
2018-09-06T00:23:43.652Z,18.30
2018-09-06T00:26:12.580Z,18.20
2018-09-06T00:28:41.681Z,18.20
2018-09-06T00:31:12.060Z,18.20
2018-09-06T00:33:41.572Z,18.30
2018-09-06T00:36:11.195Z,18.20
2018-09-06T00:38:41.167Z,18.20
2018-09-06T00:41:10.751Z,18.30
2018-09-06T00:43:40.715Z,18.40
2018-09-06T00:46:10.447Z,18.50
2018-09-06T00:48:40.535Z,18.60
2018-09-06T00:51:10.292Z,18.40
2018-09-06T00:53:40.043Z,18.40
2018-09-06T00:56:10.935Z,18.20
2018-09-06T00:58:40.415Z,18.40
2018-09-06T01:01:10.589Z,18.40
2018-09-06T01:03:39.876Z,18.60
2018-09-06T01:06:09.007Z,18.60
2018-09-06T01:08:38.075Z,18.60
2018-09-06T01:11:07.579Z,18.50
2018-09-06T01:13:36.651Z,18.40
2018-09-06T01:16:07.064Z,18.30
2018-09-06T01:18:36.638Z,18.30
2018-09-06T01:21:05.447Z,18.20
2018-09-06T01:23:34.963Z,18.30
2018-09-06T01:26:03.985Z,18.30
2018-09-06T01:28:34.138Z,18.40
2018-09-06T01:31:03.615Z,18.50
2018-09-06T01:33:33.580Z,18.60
2018-09-06T01:36:08.648Z,18.60
2018-09-06T01:38:38.242Z,18.80
2018-09-06T01:41:07.222Z,18.70
2018-09-06T01:43:36.525Z,18.70
2018-09-06T01:46:05.770Z,18.80
2018-09-06T01:48:35.334Z,18.80
2018-09-06T01:51:04.836Z,18.90
2018-09-06T01:53:34.172Z,19.00
2018-09-06T01:56:02.975Z,18.80
2018-09-06T01:58:31.849Z,18.70
2018-09-06T02:01:00.937Z,18.70
2018-09-06T02:03:30.585Z,18.80
2018-09-06T02:06:00.105Z,18.70
2018-09-06T02:08:29.508Z,18.70
2018-09-06T02:10:58.664Z,18.70
2018-09-06T02:13:28.132Z,18.70
2018-09-06T02:15:57.182Z,18.80
2018-09-06T02:18:26.462Z,18.90
2018-09-06T02:20:55.766Z,18.60
2018-09-06T02:23:26.102Z,18.40
2018-09-06T02:25:55.739Z,18.60
2018-09-06T02:28:25.178Z,18.50
2018-09-06T02:30:53.932Z,18.70
2018-09-06T02:33:23.493Z,18.70
2018-09-06T02:35:52.553Z,18.70
2018-09-06T02:38:21.592Z,18.70
2018-09-06T02:40:51.564Z,18.70
2018-09-06T02:43:20.635Z,18.90
2018-09-06T02:45:51.183Z,18.90
2018-09-06T02:48:24.240Z,18.90
2018-09-06T02:50:59.520Z,19.00
2018-09-06T02:53:32.086Z,19.00
2018-09-06T02:56:02.362Z,18.70
2018-09-06T02:58:31.772Z,18.70
2018-09-06T03:01:02.807Z,18.80
2018-09-06T03:03:32.039Z,18.90
2018-09-06T03:06:01.379Z,19.00
2018-09-06T03:08:31.474Z,19.10
2018-09-06T03:11:04.831Z,19.10
2018-09-06T03:13:33.838Z,19.00
2018-09-06T03:16:03.084Z,18.70
2018-09-06T03:18:33.113Z,18.30
2018-09-06T03:21:02.652Z,18.10
2018-09-06T03:23:32.278Z,18.10
2018-09-06T03:26:01.524Z,18.30
2018-09-06T03:28:31.034Z,18.30
2018-09-06T03:31:00.390Z,18.50
2018-09-06T03:33:30.326Z,18.60
2018-09-06T03:35:59.964Z,18.70
2018-09-06T03:38:29.614Z,18.70
2018-09-06T03:40:59.192Z,18.60
2018-09-06T03:43:28.876Z,18.50
2018-09-06T03:45:58.912Z,18.60
2018-09-06T03:48:28.810Z,18.50
2018-09-06T03:50:58.152Z,18.40
2018-09-06T03:53:27.330Z,18.30
2018-09-06T03:55:56.185Z,18.30
2018-09-06T03:58:25.812Z,18.50
2018-09-06T04:00:55.632Z,18.70
2018-09-06T04:03:24.901Z,18.70
2018-09-06T04:05:54.161Z,18.80
2018-09-06T04:08:23.504Z,18.80
2018-09-06T04:10:52.509Z,18.70
2018-09-06T04:13:21.551Z,18.60
2018-09-06T04:15:51.078Z,18.40
2018-09-06T04:18:21.053Z,18.60
2018-09-06T04:20:50.393Z,18.70
2018-09-06T04:23:20.264Z,18.70
2018-09-06T04:25:50.024Z,18.80
2018-09-06T04:28:18.974Z,18.80
2018-09-06T04:30:48.275Z,18.70
2018-09-06T04:33:16.586Z,18.60
2018-09-06T04:35:45.722Z,18.50
2018-09-06T04:38:14.362Z,18.40
2018-09-06T04:40:42.657Z,18.40
2018-09-06T04:43:11.438Z,18.30
2018-09-06T04:45:39.701Z,18.30
2018-09-06T04:48:07.937Z,18.20
2018-09-06T04:50:36.184Z,18.20
2018-09-06T04:53:04.466Z,18.10
2018-09-06T04:55:32.714Z,18.10
2018-09-06T04:58:00.973Z,18.20
2018-09-06T05:00:29.247Z,18.20
2018-09-06T05:02:58.385Z,18.20
2018-09-06T05:05:26.631Z,18.20
2018-09-06T05:07:54.931Z,17.90
2018-09-06T05:10:23.190Z,17.80
2018-09-06T05:12:51.481Z,17.80
2018-09-06T05:15:20.329Z,17.90
2018-09-06T05:17:49.581Z,17.90
2018-09-06T05:20:17.845Z,18.00
2018-09-06T05:22:46.520Z,18.30
2018-09-06T05:25:14.810Z,18.40
2018-09-06T05:27:43.073Z,18.50
2018-09-06T05:30:11.683Z,18.60
2018-09-06T05:32:39.926Z,18.50
2018-09-06T05:35:08.218Z,18.50
2018-09-06T05:37:36.649Z,18.60
2018-09-06T05:40:04.991Z,18.70
2018-09-06T05:42:33.287Z,18.60
2018-09-06T05:45:01.534Z,18.40
2018-09-06T05:47:29.859Z,18.40
2018-09-06T05:49:58.050Z,18.40
2018-09-06T05:52:26.369Z,18.20
2018-09-06T05:54:54.651Z,18.20
2018-09-06T05:57:22.944Z,18.30
2018-09-06T05:59:51.294Z,18.20
2018-09-06T06:02:19.533Z,18.20
2018-09-06T06:04:47.772Z,18.30
2018-09-06T06:07:16.026Z,18.40
2018-09-06T06:09:44.284Z,18.40
2018-09-06T06:12:12.530Z,18.30
2018-09-06T06:14:40.843Z,18.30
2018-09-06T06:17:09.117Z,18.40
2018-09-06T06:19:37.406Z,18.40
2018-09-06T06:22:05.660Z,18.50
2018-09-06T06:24:33.895Z,18.50
2018-09-06T06:27:02.206Z,18.50
2018-09-06T06:29:30.445Z,18.40
2018-09-06T06:31:58.793Z,18.50
2018-09-06T06:34:26.982Z,18.50
2018-09-06T06:36:55.280Z,18.40
2018-09-06T06:39:23.548Z,18.30
2018-09-06T06:41:51.791Z,18.20
2018-09-06T06:44:20.058Z,18.20
2018-09-06T06:46:48.325Z,18.30
2018-09-06T06:49:16.589Z,18.20
2018-09-06T06:51:45.262Z,18.40
2018-09-06T06:54:13.581Z,18.40
2018-09-06T06:56:41.846Z,18.50
2018-09-06T06:59:10.137Z,18.70
2018-09-06T07:01:38.394Z,18.70
2018-09-06T07:04:06.662Z,18.70
2018-09-06T07:06:34.936Z,18.60
2018-09-06T07:09:04.807Z,18.40
2018-09-06T07:11:33.074Z,18.50
2018-09-06T07:14:01.760Z,18.60
2018-09-06T07:16:30.064Z,18.60
2018-09-06T07:19:04.932Z,18.70
2018-09-06T07:21:33.204Z,18.70
2018-09-06T07:24:01.469Z,18.80
2018-09-06T07:26:29.727Z,18.80
2018-09-06T07:28:58.362Z,18.70
2018-09-06T07:31:26.621Z,18.60
2018-09-06T07:33:55.137Z,18.60
2018-09-06T07:36:23.418Z,18.60
2018-09-06T07:38:51.720Z,18.60
2018-09-06T07:41:20.056Z,18.80
2018-09-06T07:43:48.219Z,18.80
2018-09-06T07:46:16.473Z,18.80
2018-09-06T07:48:45.375Z,18.70
2018-09-06T07:51:13.615Z,18.70
2018-09-06T07:53:41.885Z,18.60
2018-09-06T07:56:10.153Z,18.50
2018-09-06T07:58:38.438Z,18.40
2018-09-06T08:01:07.511Z,18.40
2018-09-06T08:03:35.776Z,18.40
2018-09-06T08:06:04.010Z,18.50
2018-09-06T08:08:32.249Z,18.50
2018-09-06T08:11:00.515Z,18.60
2018-09-06T08:13:28.788Z,18.80
2018-09-06T08:15:57.051Z,18.90
2018-09-06T08:18:25.318Z,19.00
2018-09-06T08:20:53.571Z,18.90
2018-09-06T08:23:21.865Z,18.90
2018-09-06T08:25:50.114Z,19.10
2018-09-06T08:28:18.380Z,19.30
2018-09-06T08:30:47.067Z,19.30
2018-09-06T08:33:15.388Z,19.40
2018-09-06T08:35:44.424Z,19.40
2018-09-06T08:38:12.674Z,19.20
2018-09-06T08:40:40.995Z,19.20
2018-09-06T08:43:09.917Z,19.40
2018-09-06T08:45:39.202Z,19.40
2018-09-06T08:48:08.323Z,19.50
2018-09-06T08:50:36.999Z,19.40
2018-09-06T08:53:06.603Z,19.50
2018-09-06T08:55:35.399Z,19.50
2018-09-06T08:58:04.944Z,19.40
2018-09-06T09:00:37.861Z,19.40
2018-09-06T09:03:06.253Z,19.40
2018-09-06T09:05:41.376Z,19.30
2018-09-06T09:08:09.627Z,19.30
2018-09-06T09:10:37.879Z,19.20
2018-09-06T09:13:06.503Z,19.20
2018-09-06T09:15:34.798Z,19.20
2018-09-06T09:18:03.054Z,19.30
2018-09-06T09:20:31.328Z,19.30
2018-09-06T09:22:59.598Z,19.30
2018-09-06T09:25:27.872Z,19.50
2018-09-06T09:27:56.433Z,19.60
2018-09-06T09:30:24.706Z,19.60
2018-09-06T09:32:52.957Z,19.70
2018-09-06T09:35:21.290Z,19.70
2018-09-06T09:37:49.530Z,19.70
2018-09-06T09:40:17.790Z,19.80
2018-09-06T09:42:46.613Z,19.60
2018-09-06T09:45:14.862Z,19.80
2018-09-06T09:47:43.146Z,19.40
2018-09-06T09:52:51.578Z,19.50
2018-09-06T09:55:19.890Z,19.50
2018-09-06T09:57:48.130Z,19.40
2018-09-06T10:00:16.377Z,19.30
2018-09-06T10:02:50.054Z,19.30
2018-09-06T10:05:23.737Z,19.40
2018-09-06T10:07:55.553Z,19.50
2018-09-06T10:10:23.854Z,19.50
2018-09-06T10:12:53.130Z,19.50
2018-09-06T10:15:22.672Z,19.40
2018-09-06T10:17:50.980Z,19.30
2018-09-06T10:20:19.193Z,19.40
2018-09-06T10:22:47.506Z,19.30
2018-09-06T10:25:15.871Z,19.40
2018-09-06T10:27:45.049Z,19.40
2018-09-06T10:30:13.298Z,19.20
2018-09-06T10:32:41.570Z,19.10
2018-09-06T10:35:09.825Z,19.20
2018-09-06T10:37:38.119Z,19.20
2018-09-06T10:40:06.483Z,19.20
2018-09-06T10:42:34.723Z,19.30
2018-09-06T10:45:03.423Z,19.40
2018-09-06T10:47:31.691Z,19.30
2018-09-06T10:49:59.949Z,19.30
2018-09-06T10:52:28.208Z,19.20
2018-09-06T10:54:56.465Z,19.00
2018-09-06T10:57:24.754Z,18.70
2018-09-06T10:59:53.033Z,18.80
2018-09-06T11:02:22.941Z,18.60
2018-09-06T11:04:51.197Z,18.30
2018-09-06T11:07:19.481Z,18.30
2018-09-06T11:09:47.742Z,18.10
2018-09-06T11:12:15.992Z,18.20
2018-09-06T11:14:44.266Z,18.20
2018-09-06T11:17:12.658Z,18.20
2018-09-06T11:19:40.943Z,18.30
2018-09-06T11:22:10.367Z,18.50
2018-09-06T11:24:38.348Z,18.50
2018-09-06T11:27:06.598Z,18.70
2018-09-06T11:29:34.882Z,18.80
2018-09-06T11:32:05.014Z,19.00
2018-09-06T11:34:33.270Z,19.00
2018-09-06T11:37:01.571Z,19.10
2018-09-06T11:39:31.089Z,19.00
2018-09-06T11:41:59.349Z,19.00
2018-09-06T11:44:27.681Z,18.90
2018-09-06T11:46:56.041Z,19.00
2018-09-06T11:49:24.242Z,19.10
2018-09-06T11:51:52.509Z,19.00
2018-09-06T11:54:20.786Z,19.00
2018-09-06T11:56:49.021Z,19.20
2018-09-06T11:59:17.407Z,19.00
2018-09-06T12:01:46.133Z,19.20
2018-09-06T12:04:14.406Z,19.30
2018-09-06T12:06:42.919Z,19.40
2018-09-06T12:09:11.187Z,19.60
2018-09-06T12:11:39.465Z,19.70
2018-09-06T12:14:07.710Z,19.60
2018-09-06T12:16:35.947Z,19.50
2018-09-06T12:19:04.196Z,19.40
2018-09-06T12:21:32.452Z,19.60
2018-09-06T12:24:01.350Z,19.70
2018-09-06T12:26:29.577Z,19.80
2018-09-06T12:28:58.286Z,19.70
2018-09-06T12:31:26.588Z,19.70
2018-09-06T12:33:54.822Z,19.80
2018-09-06T12:36:23.544Z,19.70
2018-09-06T12:38:52.621Z,19.80
2018-09-06T12:41:21.078Z,19.90
2018-09-06T12:43:49.531Z,19.90
2018-09-06T12:46:18.883Z,19.70
2018-09-06T12:48:49.019Z,19.40
2018-09-06T12:51:17.955Z,19.40
2018-09-06T12:53:46.274Z,19.40
2018-09-06T12:56:15.155Z,19.60
2018-09-06T12:58:45.966Z,19.70
2018-09-06T13:01:15.442Z,19.80
2018-09-06T13:03:44.277Z,19.80
2018-09-06T13:06:13.191Z,19.70
2018-09-06T13:08:42.361Z,19.70
2018-09-06T13:11:10.865Z,19.80
2018-09-06T13:13:39.205Z,19.80
2018-09-06T13:16:07.560Z,19.70
2018-09-06T13:18:38.346Z,19.50
2018-09-06T13:21:06.500Z,19.40
2018-09-06T13:23:34.836Z,19.30
2018-09-06T13:26:03.402Z,19.00
2018-09-06T13:28:32.542Z,18.90
2018-09-06T13:31:01.238Z,18.90
2018-09-06T13:33:38.706Z,18.90
2018-09-06T13:36:07.330Z,19.00
2018-09-06T13:38:35.572Z,18.80
2018-09-06T13:41:03.973Z,18.90
2018-09-06T13:43:32.566Z,18.90
2018-09-06T13:46:02.165Z,18.80
2018-09-06T13:48:31.797Z,18.80
2018-09-06T13:51:00.257Z,18.80
2018-09-06T13:53:28.820Z,18.80
2018-09-06T13:55:58.514Z,18.80
2018-09-06T13:58:27.750Z,18.60
2018-09-06T14:00:56.954Z,18.60
2018-09-06T14:03:26.016Z,18.20
2018-09-06T14:05:57.223Z,18.30
2018-09-06T14:08:31.731Z,18.40
2018-09-06T14:11:06.439Z,18.40
2018-09-06T14:13:38.996Z,18.40
2018-09-06T14:16:12.088Z,18.40
2018-09-06T14:18:44.329Z,18.50
2018-09-06T14:21:16.069Z,18.60
2018-09-06T14:23:47.370Z,18.30
2018-09-06T14:26:22.496Z,18.20
2018-09-06T14:28:53.252Z,18.30
2018-09-06T14:31:28.542Z,18.40
2018-09-06T14:34:00.725Z,18.50
2018-09-06T14:36:32.484Z,18.60
2018-09-06T14:39:06.140Z,18.70
2018-09-06T14:41:37.886Z,18.80
2018-09-06T14:44:11.703Z,19.00
2018-09-06T14:46:43.620Z,19.20
2018-09-06T14:49:15.064Z,19.10
2018-09-06T14:51:47.126Z,19.10
2018-09-06T14:54:18.918Z,19.10
2018-09-06T14:56:51.639Z,19.00
2018-09-06T14:59:26.414Z,18.90
2018-09-06T15:01:59.282Z,19.00
2018-09-06T15:04:31.939Z,18.90
2018-09-06T15:07:03.503Z,18.90
2018-09-06T15:09:36.393Z,19.00
2018-09-06T15:12:08.828Z,18.90
2018-09-06T15:14:41.241Z,18.70
2018-09-06T15:17:14.261Z,18.70
2018-09-06T15:19:45.648Z,18.90
2018-09-06T15:22:16.626Z,19.00
2018-09-06T15:24:47.511Z,19.10
2018-09-06T15:27:18.161Z,19.10
2018-09-06T15:29:48.839Z,19.10
2018-09-06T15:32:20.227Z,19.00
2018-09-06T15:34:52.255Z,19.00
2018-09-06T15:37:23.803Z,19.10
2018-09-06T15:39:55.527Z,19.20
2018-09-06T15:42:25.634Z,19.10
2018-09-06T15:44:57.118Z,19.20
2018-09-06T15:47:27.340Z,19.30
2018-09-06T15:49:58.558Z,19.30
2018-09-06T15:52:32.007Z,19.40
2018-09-06T15:55:05.599Z,19.50
2018-09-06T15:57:38.467Z,19.40
2018-09-06T16:00:10.945Z,19.40
2018-09-06T16:02:41.664Z,19.20
2018-09-06T16:05:13.996Z,19.20
2018-09-06T16:07:43.678Z,19.10
2018-09-06T16:10:14.559Z,19.10
2018-09-06T16:12:46.095Z,19.00
2018-09-06T16:15:17.997Z,19.00
2018-09-06T16:17:49.365Z,18.70
2018-09-06T16:20:26.328Z,18.60
2018-09-06T16:22:57.378Z,18.60
2018-09-06T16:25:28.472Z,18.50
2018-09-06T16:27:59.690Z,18.50
2018-09-06T16:30:30.791Z,18.50
2018-09-06T16:33:03.880Z,18.30
2018-09-06T16:35:35.228Z,18.30
2018-09-06T16:38:05.175Z,18.30
2018-09-06T16:40:36.947Z,18.40
2018-09-06T16:43:07.034Z,18.50
2018-09-06T16:45:37.459Z,18.60
2018-09-06T16:48:07.753Z,18.70
2018-09-06T16:50:37.776Z,18.50
2018-09-06T16:53:10.900Z,18.60
2018-09-06T16:55:42.332Z,18.50
2018-09-06T16:58:13.704Z,18.40
2018-09-06T17:00:46.543Z,18.30
2018-09-06T17:03:18.201Z,18.30
2018-09-06T17:05:49.417Z,18.40
2018-09-06T17:08:23.166Z,18.40
2018-09-06T17:10:54.330Z,18.50
2018-09-06T17:13:27.925Z,18.40
2018-09-06T17:15:59.201Z,18.40
2018-09-06T17:18:31.355Z,18.30
2018-09-06T17:21:02.877Z,18.30
2018-09-06T17:23:35.011Z,18.40
2018-09-06T17:26:12.339Z,18.40
2018-09-06T17:28:44.160Z,18.40
2018-09-06T17:31:15.749Z,18.50
2018-09-06T17:36:19.261Z,18.70
2018-09-06T17:38:51.011Z,18.60
2018-09-06T17:41:22.284Z,18.60
2018-09-06T17:43:53.779Z,18.70
2018-09-06T17:46:25.904Z,18.70
2018-09-06T17:48:57.188Z,18.70
2018-09-06T17:51:29.508Z,18.60
2018-09-06T17:54:01.128Z,18.60
2018-09-06T17:56:32.912Z,18.60
2018-09-06T17:59:06.080Z,18.70
2018-09-06T18:01:39.199Z,18.50
2018-09-06T18:04:10.570Z,18.30
2018-09-06T18:06:42.509Z,18.20
2018-09-06T18:09:15.646Z,18.20
2018-09-06T18:11:47.442Z,18.20
2018-09-06T18:14:18.887Z,18.20
2018-09-06T18:16:52.653Z,18.00
2018-09-06T18:19:22.426Z,18.00
2018-09-06T18:21:52.955Z,18.00
2018-09-06T18:24:23.213Z,18.10
2018-09-06T18:26:52.409Z,18.40
2018-09-06T18:29:21.804Z,18.30
2018-09-06T18:31:51.421Z,18.20
2018-09-06T18:34:20.934Z,18.20
2018-09-06T18:36:50.117Z,18.20
2018-09-06T18:39:20.018Z,18.30
2018-09-06T18:41:50.189Z,18.40
2018-09-06T18:44:19.724Z,18.40
2018-09-06T18:46:48.827Z,18.30
2018-09-06T18:49:17.344Z,18.40
2018-09-06T18:51:46.179Z,18.50
2018-09-06T18:54:15.228Z,18.50
2018-09-06T18:56:45.140Z,18.40
2018-09-06T18:59:14.813Z,18.40
2018-09-06T19:01:44.643Z,18.30
2018-09-06T19:04:16.691Z,18.30
2018-09-06T19:06:46.255Z,18.20
2018-09-06T19:09:16.281Z,18.10
2018-09-06T19:11:45.843Z,18.10
2018-09-06T19:14:15.602Z,18.00
2018-09-06T19:16:44.355Z,18.10
2018-09-06T19:19:14.765Z,18.10
2018-09-06T19:21:44.415Z,18.00
2018-09-06T19:24:13.339Z,17.90
2018-09-06T19:26:43.568Z,17.80
2018-09-06T19:29:12.198Z,17.70
2018-09-06T19:31:41.933Z,17.70
2018-09-06T19:34:11.408Z,17.80
2018-09-06T19:36:40.710Z,17.80
2018-09-06T19:39:12.126Z,17.70
2018-09-06T19:41:41.610Z,17.80
2018-09-06T19:44:11.183Z,17.60
2018-09-06T19:46:42.474Z,17.60
2018-09-06T19:49:11.788Z,17.60
2018-09-06T19:51:40.795Z,17.50
2018-09-06T19:54:10.056Z,17.30
2018-09-06T19:56:39.024Z,17.20
2018-09-06T19:59:14.559Z,17.30
2018-09-06T20:01:46.997Z,17.30
2018-09-06T20:04:17.085Z,17.50
2018-09-06T20:06:46.627Z,17.60
2018-09-06T20:09:15.878Z,17.60
2018-09-06T20:11:45.699Z,17.60
2018-09-06T20:14:15.714Z,17.70
2018-09-06T20:16:45.872Z,17.70
2018-09-06T20:19:16.842Z,17.80
2018-09-06T20:21:45.962Z,17.80
2018-09-06T20:24:15.174Z,17.80
2018-09-06T20:39:53.256Z,17.90
2018-09-06T20:42:30.277Z,17.90
2018-09-06T20:45:09.096Z,17.00
2018-09-06T20:47:43.841Z,17.00
2018-09-06T20:50:20.424Z,17.20
2018-09-06T20:54:26.876Z,17.30
2018-09-06T20:57:01.320Z,17.40
2018-09-06T20:59:37.110Z,17.50
2018-09-06T21:15:49.810Z,17.60
2018-09-06T21:18:18.341Z,17.80
2018-09-06T21:20:47.559Z,17.70
2018-09-06T21:23:16.811Z,17.70
2018-09-06T21:25:45.130Z,17.60
2018-09-06T21:28:13.696Z,17.60
2018-09-06T21:30:43.141Z,17.60
2018-09-06T21:33:11.378Z,17.60
2018-09-06T21:35:39.613Z,17.60
2018-09-06T21:38:07.859Z,17.60
2018-09-06T21:40:36.105Z,17.60
2018-09-06T21:43:04.359Z,17.70
2018-09-06T21:45:32.613Z,17.70
2018-09-06T21:48:00.845Z,17.70
2018-09-06T21:50:29.082Z,17.70
2018-09-06T21:52:57.356Z,17.60
2018-09-06T21:55:26.414Z,17.60
2018-09-06T21:57:54.678Z,17.60
2018-09-06T22:00:23.799Z,17.60
2018-09-06T22:02:57.297Z,17.60
2018-09-06T22:05:25.543Z,17.70
2018-09-06T22:07:53.771Z,17.70
2018-09-06T22:10:22.915Z,17.70
2018-09-06T22:12:52.380Z,17.70
2018-09-06T22:15:20.698Z,17.70
2018-09-06T22:17:48.960Z,17.70
2018-09-06T22:20:17.209Z,17.70
2018-09-06T22:22:45.509Z,17.70
2018-09-06T22:25:13.772Z,17.80
2018-09-06T22:27:42.518Z,17.70
2018-09-06T22:30:10.758Z,17.60
2018-09-06T22:32:38.978Z,17.60
2018-09-06T22:35:07.749Z,17.50
2018-09-06T22:37:35.985Z,17.50
2018-09-06T22:40:04.222Z,17.60
2018-09-06T22:42:32.521Z,17.50
2018-09-06T22:45:00.757Z,17.60
2018-09-06T22:47:29.034Z,17.70
2018-09-06T22:49:57.261Z,17.70
2018-09-06T22:52:25.518Z,17.80
2018-09-06T22:54:53.754Z,17.80
2018-09-06T22:57:21.986Z,17.70
2018-09-06T22:59:50.239Z,17.70
2018-09-06T23:02:18.533Z,17.70
2018-09-06T23:04:46.793Z,17.70
2018-09-06T23:07:15.019Z,17.60
2018-09-06T23:09:44.122Z,17.60
2018-09-06T23:12:12.429Z,17.60
2018-09-06T23:14:40.652Z,17.50
2018-09-06T23:17:08.917Z,17.60
2018-09-06T23:19:37.202Z,17.50
2018-09-06T23:22:05.945Z,17.50
2018-09-06T23:24:34.177Z,17.60
2018-09-06T23:27:02.420Z,17.50
2018-09-06T23:29:30.650Z,17.50
2018-09-06T23:31:58.898Z,17.50
2018-09-06T23:34:31.364Z,17.50
2018-09-06T23:36:59.656Z,17.60
2018-09-06T23:39:27.931Z,17.60
2018-09-06T23:41:56.177Z,17.60
2018-09-06T23:44:24.507Z,17.60
2018-09-06T23:46:52.749Z,17.50
2018-09-06T23:49:21.253Z,17.60
2018-09-06T23:51:49.497Z,17.50
2018-09-06T23:54:17.730Z,17.50
2018-09-06T23:56:45.986Z,17.50
2018-09-06T23:59:14.278Z,17.40
